sensor_id;sensor_type;location;lat;lon;timestamp;P1;durP1;ratioP1;P2;durP2;ratioP2
8938;SDS011;4504;48.810;9.172;2024-03-06T00:01:57;117.40;;;4.50;;
8938;SDS011;4504;48.810;9.172;2024-03-06T00:04:24;117.53;;;4.50;;
8938;SDS011;4504;48.810;9.172;2024-03-06T00:06:53;117.75;;;4.40;;
8938;SDS011;4504;48.810;9.172;2024-03-06T00:09:20;119.07;;;4.50;;
8938;SDS011;4504;48.810;9.172;2024-03-06T00:11:47;119.68;;;4.75;;
8938;SDS011;4504;48.810;9.172;2024-03-06T00:14:16;119.22;;;4.95;;
8938;SDS011;4504;48.810;9.172;2024-03-06T00:16:43;120.63;;;5.35;;
8938;SDS011;4504;48.810;9.172;2024-03-06T00:19:10;119.47;;;4.70;;
8938;SDS011;4504;48.810;9.172;2024-03-06T00:21:37;118.70;;;4.20;;
8938;SDS011;4504;48.810;9.172;2024-03-06T00:24:05;120.28;;;4.82;;
8938;SDS011;4504;48.810;9.172;2024-03-06T00:26:33;118.78;;;4.60;;
8938;SDS011;4504;48.810;9.172;2024-03-06T00:29:00;119.00;;;4.75;;
8938;SDS011;4504;48.810;9.172;2024-03-06T00:31:27;118.78;;;5.00;;
8938;SDS011;4504;48.810;9.172;2024-03-06T00:33:54;119.30;;;4.80;;
8938;SDS011;4504;48.810;9.172;2024-03-06T00:36:21;117.75;;;5.00;;
8938;SDS011;4504;48.810;9.172;2024-03-06T00:38:48;119.90;;;4.93;;
8938;SDS011;4504;48.810;9.172;2024-03-06T00:41:17;119.22;;;4.50;;
8938;SDS011;4504;48.810;9.172;2024-03-06T00:43:44;118.78;;;4.97;;
8938;SDS011;4504;48.810;9.172;2024-03-06T00:46:11;118.97;;;4.30;;
8938;SDS011;4504;48.810;9.172;2024-03-06T00:48:38;117.72;;;4.63;;
8938;SDS011;4504;48.810;9.172;2024-03-06T00:51:05;119.05;;;4.30;;
8938;SDS011;4504;48.810;9.172;2024-03-06T00:53:32;123.75;;;4.50;;
8938;SDS011;4504;48.810;9.172;2024-03-06T00:56:00;117.97;;;4.88;;
8938;SDS011;4504;48.810;9.172;2024-03-06T00:58:29;118.90;;;4.55;;
8938;SDS011;4504;48.810;9.172;2024-03-06T01:00:55;123.18;;;5.68;;
8938;SDS011;4504;48.810;9.172;2024-03-06T01:03:23;118.32;;;4.90;;
8938;SDS011;4504;48.810;9.172;2024-03-06T01:05:50;118.32;;;4.45;;
8938;SDS011;4504;48.810;9.172;2024-03-06T01:08:18;119.47;;;4.80;;
8938;SDS011;4504;48.810;9.172;2024-03-06T01:10:45;118.13;;;4.93;;
8938;SDS011;4504;48.810;9.172;2024-03-06T01:13:12;119.93;;;4.20;;
8938;SDS011;4504;48.810;9.172;2024-03-06T01:15:40;119.30;;;5.05;;
8938;SDS011;4504;48.810;9.172;2024-03-06T01:18:07;120.50;;;4.40;;
8938;SDS011;4504;48.810;9.172;2024-03-06T01:20:35;118.65;;;4.60;;
8938;SDS011;4504;48.810;9.172;2024-03-06T01:23:02;119.57;;;5.50;;
8938;SDS011;4504;48.810;9.172;2024-03-06T01:25:29;119.82;;;4.75;;
8938;SDS011;4504;48.810;9.172;2024-03-06T01:27:56;118.57;;;4.28;;
8938;SDS011;4504;48.810;9.172;2024-03-06T01:30:23;118.43;;;4.93;;
8938;SDS011;4504;48.810;9.172;2024-03-06T01:32:51;119.78;;;4.70;;
8938;SDS011;4504;48.810;9.172;2024-03-06T01:35:18;118.82;;;4.90;;
8938;SDS011;4504;48.810;9.172;2024-03-06T01:37:45;119.10;;;4.40;;
8938;SDS011;4504;48.810;9.172;2024-03-06T01:40:12;118.57;;;4.25;;
8938;SDS011;4504;48.810;9.172;2024-03-06T01:42:39;120.35;;;5.00;;
8938;SDS011;4504;48.810;9.172;2024-03-06T01:45:07;117.13;;;4.72;;
8938;SDS011;4504;48.810;9.172;2024-03-06T01:47:35;117.63;;;4.70;;
8938;SDS011;4504;48.810;9.172;2024-03-06T01:50:03;118.20;;;4.50;;
8938;SDS011;4504;48.810;9.172;2024-03-06T01:52:34;118.47;;;4.47;;
8938;SDS011;4504;48.810;9.172;2024-03-06T01:55:02;125.63;;;4.95;;
8938;SDS011;4504;48.810;9.172;2024-03-06T01:57:30;117.70;;;4.55;;
8938;SDS011;4504;48.810;9.172;2024-03-06T01:59:58;121.15;;;5.25;;
8938;SDS011;4504;48.810;9.172;2024-03-06T02:02:25;119.82;;;4.85;;
8938;SDS011;4504;48.810;9.172;2024-03-06T02:04:52;118.38;;;4.50;;
8938;SDS011;4504;48.810;9.172;2024-03-06T02:07:21;119.70;;;4.78;;
8938;SDS011;4504;48.810;9.172;2024-03-06T02:09:50;119.18;;;4.80;;
8938;SDS011;4504;48.810;9.172;2024-03-06T02:12:17;117.93;;;4.97;;
8938;SDS011;4504;48.810;9.172;2024-03-06T02:14:44;121.85;;;5.57;;
8938;SDS011;4504;48.810;9.172;2024-03-06T02:17:11;119.20;;;4.72;;
8938;SDS011;4504;48.810;9.172;2024-03-06T02:19:38;117.93;;;4.90;;
8938;SDS011;4504;48.810;9.172;2024-03-06T02:22:08;119.07;;;4.80;;
8938;SDS011;4504;48.810;9.172;2024-03-06T02:24:35;119.45;;;4.90;;
8938;SDS011;4504;48.810;9.172;2024-03-06T02:27:02;118.63;;;4.60;;
8938;SDS011;4504;48.810;9.172;2024-03-06T02:29:30;119.18;;;4.70;;
8938;SDS011;4504;48.810;9.172;2024-03-06T02:31:58;117.93;;;4.63;;
8938;SDS011;4504;48.810;9.172;2024-03-06T02:34:27;118.53;;;4.95;;
8938;SDS011;4504;48.810;9.172;2024-03-06T02:36:55;119.05;;;5.03;;
8938;SDS011;4504;48.810;9.172;2024-03-06T02:39:24;119.95;;;4.88;;
8938;SDS011;4504;48.810;9.172;2024-03-06T02:41:51;120.35;;;5.40;;
8938;SDS011;4504;48.810;9.172;2024-03-06T02:44:18;119.82;;;5.15;;
8938;SDS011;4504;48.810;9.172;2024-03-06T02:46:46;120.13;;;5.75;;
8938;SDS011;4504;48.810;9.172;2024-03-06T02:49:15;121.43;;;5.60;;
8938;SDS011;4504;48.810;9.172;2024-03-06T02:51:42;121.00;;;4.90;;
8938;SDS011;4504;48.810;9.172;2024-03-06T02:54:09;119.38;;;5.50;;
8938;SDS011;4504;48.810;9.172;2024-03-06T02:56:37;124.07;;;5.53;;
8938;SDS011;4504;48.810;9.172;2024-03-06T02:59:04;119.82;;;5.45;;
8938;SDS011;4504;48.810;9.172;2024-03-06T03:01:31;122.70;;;5.53;;
8938;SDS011;4504;48.810;9.172;2024-03-06T03:03:58;121.68;;;6.20;;
8938;SDS011;4504;48.810;9.172;2024-03-06T03:06:25;120.45;;;5.68;;
8938;SDS011;4504;48.810;9.172;2024-03-06T03:08:54;121.95;;;5.50;;
8938;SDS011;4504;48.810;9.172;2024-03-06T03:11:21;118.88;;;5.35;;
8938;SDS011;4504;48.810;9.172;2024-03-06T03:13:49;120.82;;;6.20;;
8938;SDS011;4504;48.810;9.172;2024-03-06T03:16:16;120.90;;;6.00;;
8938;SDS011;4504;48.810;9.172;2024-03-06T03:18:44;120.18;;;6.07;;
8938;SDS011;4504;48.810;9.172;2024-03-06T03:21:11;119.57;;;5.75;;
8938;SDS011;4504;48.810;9.172;2024-03-06T03:23:38;121.28;;;5.82;;
8938;SDS011;4504;48.810;9.172;2024-03-06T03:26:05;119.43;;;5.90;;
8938;SDS011;4504;48.810;9.172;2024-03-06T03:28:32;119.13;;;5.47;;
8938;SDS011;4504;48.810;9.172;2024-03-06T03:31:01;124.10;;;6.40;;
8938;SDS011;4504;48.810;9.172;2024-03-06T03:33:27;120.20;;;5.97;;
8938;SDS011;4504;48.810;9.172;2024-03-06T03:35:54;123.90;;;6.00;;
8938;SDS011;4504;48.810;9.172;2024-03-06T03:38:21;119.70;;;5.93;;
8938;SDS011;4504;48.810;9.172;2024-03-06T03:40:48;120.60;;;6.00;;
8938;SDS011;4504;48.810;9.172;2024-03-06T03:43:15;119.38;;;5.70;;
8938;SDS011;4504;48.810;9.172;2024-03-06T03:45:43;121.43;;;5.85;;
8938;SDS011;4504;48.810;9.172;2024-03-06T03:48:11;120.00;;;5.70;;
8938;SDS011;4504;48.810;9.172;2024-03-06T03:50:38;121.78;;;6.40;;
8938;SDS011;4504;48.810;9.172;2024-03-06T03:53:05;118.15;;;5.50;;
8938;SDS011;4504;48.810;9.172;2024-03-06T03:55:32;120.20;;;5.80;;
8938;SDS011;4504;48.810;9.172;2024-03-06T03:57:59;119.78;;;5.88;;
8938;SDS011;4504;48.810;9.172;2024-03-06T04:00:26;120.22;;;6.10;;
8938;SDS011;4504;48.810;9.172;2024-03-06T04:02:53;119.78;;;5.75;;
8938;SDS011;4504;48.810;9.172;2024-03-06T04:05:22;128.80;;;5.78;;
8938;SDS011;4504;48.810;9.172;2024-03-06T04:07:49;119.63;;;6.20;;
8938;SDS011;4504;48.810;9.172;2024-03-06T04:10:16;125.25;;;6.85;;
8938;SDS011;4504;48.810;9.172;2024-03-06T04:12:43;119.68;;;6.28;;
8938;SDS011;4504;48.810;9.172;2024-03-06T04:15:10;120.72;;;6.25;;
8938;SDS011;4504;48.810;9.172;2024-03-06T04:17:37;120.18;;;6.10;;
8938;SDS011;4504;48.810;9.172;2024-03-06T04:20:06;121.68;;;6.15;;
8938;SDS011;4504;48.810;9.172;2024-03-06T04:22:38;121.45;;;6.30;;
8938;SDS011;4504;48.810;9.172;2024-03-06T04:25:05;126.47;;;6.85;;
8938;SDS011;4504;48.810;9.172;2024-03-06T04:27:32;119.72;;;6.35;;
8938;SDS011;4504;48.810;9.172;2024-03-06T04:30:00;120.53;;;6.30;;
8938;SDS011;4504;48.810;9.172;2024-03-06T04:32:27;121.50;;;6.53;;
8938;SDS011;4504;48.810;9.172;2024-03-06T04:34:54;120.55;;;6.30;;
8938;SDS011;4504;48.810;9.172;2024-03-06T04:37:21;123.28;;;6.53;;
8938;SDS011;4504;48.810;9.172;2024-03-06T04:39:49;120.82;;;6.45;;
8938;SDS011;4504;48.810;9.172;2024-03-06T04:42:16;119.60;;;6.60;;
8938;SDS011;4504;48.810;9.172;2024-03-06T04:44:45;122.38;;;7.07;;
8938;SDS011;4504;48.810;9.172;2024-03-06T04:47:12;120.88;;;6.55;;
8938;SDS011;4504;48.810;9.172;2024-03-06T04:49:39;122.35;;;6.43;;
8938;SDS011;4504;48.810;9.172;2024-03-06T04:52:06;122.05;;;6.55;;
8938;SDS011;4504;48.810;9.172;2024-03-06T04:54:34;121.75;;;6.95;;
8938;SDS011;4504;48.810;9.172;2024-03-06T04:57:02;123.38;;;6.93;;
8938;SDS011;4504;48.810;9.172;2024-03-06T04:59:30;121.05;;;6.55;;
8938;SDS011;4504;48.810;9.172;2024-03-06T05:01:57;121.68;;;6.85;;
8938;SDS011;4504;48.810;9.172;2024-03-06T05:04:24;127.53;;;7.10;;
8938;SDS011;4504;48.810;9.172;2024-03-06T05:06:51;122.18;;;6.60;;
8938;SDS011;4504;48.810;9.172;2024-03-06T05:09:18;123.57;;;8.05;;
8938;SDS011;4504;48.810;9.172;2024-03-06T05:11:45;123.82;;;7.68;;
8938;SDS011;4504;48.810;9.172;2024-03-06T05:14:13;122.18;;;8.00;;
8938;SDS011;4504;48.810;9.172;2024-03-06T05:16:40;122.65;;;7.18;;
8938;SDS011;4504;48.810;9.172;2024-03-06T05:19:07;121.63;;;6.80;;
8938;SDS011;4504;48.810;9.172;2024-03-06T05:21:33;121.30;;;6.65;;
8938;SDS011;4504;48.810;9.172;2024-03-06T05:24:01;123.90;;;7.45;;
8938;SDS011;4504;48.810;9.172;2024-03-06T05:26:28;121.93;;;7.38;;
8938;SDS011;4504;48.810;9.172;2024-03-06T05:28:55;122.35;;;6.85;;
8938;SDS011;4504;48.810;9.172;2024-03-06T05:31:23;121.93;;;7.20;;
8938;SDS011;4504;48.810;9.172;2024-03-06T05:33:50;124.57;;;7.93;;
8938;SDS011;4504;48.810;9.172;2024-03-06T05:36:17;122.18;;;7.60;;
8938;SDS011;4504;48.810;9.172;2024-03-06T05:38:44;122.93;;;7.60;;
8938;SDS011;4504;48.810;9.172;2024-03-06T05:41:13;121.63;;;6.90;;
8938;SDS011;4504;48.810;9.172;2024-03-06T05:43:40;121.68;;;7.20;;
8938;SDS011;4504;48.810;9.172;2024-03-06T05:46:07;124.13;;;8.25;;
8938;SDS011;4504;48.810;9.172;2024-03-06T05:48:35;128.10;;;8.38;;
8938;SDS011;4504;48.810;9.172;2024-03-06T05:51:02;122.85;;;7.20;;
8938;SDS011;4504;48.810;9.172;2024-03-06T05:53:29;122.95;;;7.75;;
8938;SDS011;4504;48.810;9.172;2024-03-06T05:55:56;122.95;;;7.45;;
8938;SDS011;4504;48.810;9.172;2024-03-06T05:58:23;127.78;;;8.25;;
8938;SDS011;4504;48.810;9.172;2024-03-06T06:00:50;123.00;;;7.43;;
8938;SDS011;4504;48.810;9.172;2024-03-06T06:03:17;125.07;;;7.90;;
8938;SDS011;4504;48.810;9.172;2024-03-06T06:05:45;124.55;;;7.80;;
8938;SDS011;4504;48.810;9.172;2024-03-06T06:08:13;122.40;;;7.68;;
8938;SDS011;4504;48.810;9.172;2024-03-06T06:10:40;124.65;;;7.55;;
8938;SDS011;4504;48.810;9.172;2024-03-06T06:13:07;124.32;;;7.63;;
8938;SDS011;4504;48.810;9.172;2024-03-06T06:15:34;121.55;;;7.22;;
8938;SDS011;4504;48.810;9.172;2024-03-06T06:18:01;125.78;;;7.68;;
8938;SDS011;4504;48.810;9.172;2024-03-06T06:20:28;122.38;;;7.50;;
8938;SDS011;4504;48.810;9.172;2024-03-06T06:22:56;122.97;;;7.50;;
8938;SDS011;4504;48.810;9.172;2024-03-06T06:25:24;120.93;;;6.88;;
8938;SDS011;4504;48.810;9.172;2024-03-06T06:27:51;123.10;;;7.60;;
8938;SDS011;4504;48.810;9.172;2024-03-06T06:30:17;128.32;;;7.40;;
8938;SDS011;4504;48.810;9.172;2024-03-06T06:32:45;121.93;;;7.30;;
8938;SDS011;4504;48.810;9.172;2024-03-06T06:35:12;123.22;;;7.45;;
8938;SDS011;4504;48.810;9.172;2024-03-06T06:37:39;128.02;;;7.93;;
8938;SDS011;4504;48.810;9.172;2024-03-06T06:40:08;123.07;;;6.95;;
8938;SDS011;4504;48.810;9.172;2024-03-06T06:42:37;122.93;;;7.80;;
8938;SDS011;4504;48.810;9.172;2024-03-06T06:45:05;122.88;;;7.30;;
8938;SDS011;4504;48.810;9.172;2024-03-06T06:47:34;122.38;;;7.45;;
8938;SDS011;4504;48.810;9.172;2024-03-06T06:50:01;122.57;;;6.90;;
8938;SDS011;4504;48.810;9.172;2024-03-06T06:52:30;122.13;;;7.32;;
8938;SDS011;4504;48.810;9.172;2024-03-06T06:54:58;121.57;;;6.72;;
8938;SDS011;4504;48.810;9.172;2024-03-06T06:57:27;123.13;;;7.35;;
8938;SDS011;4504;48.810;9.172;2024-03-06T06:59:54;124.70;;;7.53;;
8938;SDS011;4504;48.810;9.172;2024-03-06T07:02:21;124.15;;;7.40;;
8938;SDS011;4504;48.810;9.172;2024-03-06T07:04:48;123.38;;;8.10;;
8938;SDS011;4504;48.810;9.172;2024-03-06T07:07:15;122.72;;;7.35;;
8938;SDS011;4504;48.810;9.172;2024-03-06T07:09:42;122.10;;;7.40;;
8938;SDS011;4504;48.810;9.172;2024-03-06T07:12:09;125.68;;;7.47;;
8938;SDS011;4504;48.810;9.172;2024-03-06T07:14:37;122.68;;;7.20;;
8938;SDS011;4504;48.810;9.172;2024-03-06T07:17:04;122.18;;;7.22;;
8938;SDS011;4504;48.810;9.172;2024-03-06T07:19:31;125.47;;;8.10;;
8938;SDS011;4504;48.810;9.172;2024-03-06T07:21:58;123.28;;;7.63;;
8938;SDS011;4504;48.810;9.172;2024-03-06T07:24:25;122.68;;;6.85;;
8938;SDS011;4504;48.810;9.172;2024-03-06T07:26:52;122.57;;;7.35;;
8938;SDS011;4504;48.810;9.172;2024-03-06T07:29:19;130.13;;;7.65;;
8938;SDS011;4504;48.810;9.172;2024-03-06T07:31:48;124.20;;;7.88;;
8938;SDS011;4504;48.810;9.172;2024-03-06T07:34:15;122.72;;;7.10;;
8938;SDS011;4504;48.810;9.172;2024-03-06T07:36:43;123.60;;;7.90;;
8938;SDS011;4504;48.810;9.172;2024-03-06T07:39:11;123.22;;;7.10;;
8938;SDS011;4504;48.810;9.172;2024-03-06T07:41:39;124.47;;;8.45;;
8938;SDS011;4504;48.810;9.172;2024-03-06T07:44:06;123.82;;;7.32;;
8938;SDS011;4504;48.810;9.172;2024-03-06T07:46:34;122.90;;;7.55;;
8938;SDS011;4504;48.810;9.172;2024-03-06T07:49:03;122.13;;;7.35;;
8938;SDS011;4504;48.810;9.172;2024-03-06T07:51:30;126.53;;;7.45;;
8938;SDS011;4504;48.810;9.172;2024-03-06T07:53:57;124.53;;;7.40;;
8938;SDS011;4504;48.810;9.172;2024-03-06T07:56:24;123.43;;;8.00;;
8938;SDS011;4504;48.810;9.172;2024-03-06T07:58:52;121.85;;;6.90;;
8938;SDS011;4504;48.810;9.172;2024-03-06T08:01:19;128.35;;;7.65;;
8938;SDS011;4504;48.810;9.172;2024-03-06T08:03:47;124.00;;;8.20;;
8938;SDS011;4504;48.810;9.172;2024-03-06T08:06:15;122.97;;;7.55;;
8938;SDS011;4504;48.810;9.172;2024-03-06T08:08:42;123.13;;;7.40;;
8938;SDS011;4504;48.810;9.172;2024-03-06T08:11:10;124.57;;;7.57;;
8938;SDS011;4504;48.810;9.172;2024-03-06T08:13:37;125.10;;;8.00;;
8938;SDS011;4504;48.810;9.172;2024-03-06T08:16:05;123.38;;;7.30;;
8938;SDS011;4504;48.810;9.172;2024-03-06T08:18:32;123.93;;;7.15;;
8938;SDS011;4504;48.810;9.172;2024-03-06T08:21:00;126.75;;;7.10;;
8938;SDS011;4504;48.810;9.172;2024-03-06T08:23:30;126.10;;;8.40;;
8938;SDS011;4504;48.810;9.172;2024-03-06T08:25:58;123.22;;;7.30;;
8938;SDS011;4504;48.810;9.172;2024-03-06T08:28:25;129.10;;;8.55;;
8938;SDS011;4504;48.810;9.172;2024-03-06T08:30:52;129.15;;;8.07;;
8938;SDS011;4504;48.810;9.172;2024-03-06T08:33:19;125.00;;;7.80;;
8938;SDS011;4504;48.810;9.172;2024-03-06T08:35:47;124.38;;;7.43;;
8938;SDS011;4504;48.810;9.172;2024-03-06T08:38:14;124.25;;;7.70;;
8938;SDS011;4504;48.810;9.172;2024-03-06T08:40:43;123.88;;;7.50;;
8938;SDS011;4504;48.810;9.172;2024-03-06T08:43:11;132.95;;;7.10;;
8938;SDS011;4504;48.810;9.172;2024-03-06T08:45:40;122.93;;;7.05;;
8938;SDS011;4504;48.810;9.172;2024-03-06T08:48:07;129.52;;;8.32;;
8938;SDS011;4504;48.810;9.172;2024-03-06T08:50:35;124.97;;;8.60;;
8938;SDS011;4504;48.810;9.172;2024-03-06T08:53:02;124.28;;;8.07;;
8938;SDS011;4504;48.810;9.172;2024-03-06T08:55:29;125.68;;;8.88;;
8938;SDS011;4504;48.810;9.172;2024-03-06T08:57:58;123.75;;;8.30;;
8938;SDS011;4504;48.810;9.172;2024-03-06T09:00:26;122.85;;;7.40;;
8938;SDS011;4504;48.810;9.172;2024-03-06T09:02:53;124.38;;;7.90;;
8938;SDS011;4504;48.810;9.172;2024-03-06T09:05:20;124.07;;;7.60;;
8938;SDS011;4504;48.810;9.172;2024-03-06T09:07:47;125.78;;;8.60;;
8938;SDS011;4504;48.810;9.172;2024-03-06T09:10:14;125.28;;;8.38;;
8938;SDS011;4504;48.810;9.172;2024-03-06T09:12:42;123.13;;;8.00;;
8938;SDS011;4504;48.810;9.172;2024-03-06T09:15:10;125.75;;;8.27;;
8938;SDS011;4504;48.810;9.172;2024-03-06T09:17:38;124.30;;;7.57;;
8938;SDS011;4504;48.810;9.172;2024-03-06T09:20:05;127.38;;;8.60;;
8938;SDS011;4504;48.810;9.172;2024-03-06T09:22:36;124.78;;;8.35;;
8938;SDS011;4504;48.810;9.172;2024-03-06T09:25:04;123.40;;;7.25;;
8938;SDS011;4504;48.810;9.172;2024-03-06T09:27:31;123.53;;;7.47;;
8938;SDS011;4504;48.810;9.172;2024-03-06T09:29:58;125.57;;;8.10;;
8938;SDS011;4504;48.810;9.172;2024-03-06T09:32:27;124.68;;;8.40;;
8938;SDS011;4504;48.810;9.172;2024-03-06T09:34:54;124.35;;;7.53;;
8938;SDS011;4504;48.810;9.172;2024-03-06T09:37:21;123.72;;;7.85;;
8938;SDS011;4504;48.810;9.172;2024-03-06T09:39:48;123.88;;;7.20;;
8938;SDS011;4504;48.810;9.172;2024-03-06T09:42:15;126.32;;;7.45;;
8938;SDS011;4504;48.810;9.172;2024-03-06T09:44:42;125.38;;;8.40;;
8938;SDS011;4504;48.810;9.172;2024-03-06T09:47:11;123.28;;;7.47;;
8938;SDS011;4504;48.810;9.172;2024-03-06T09:49:41;124.60;;;8.10;;
8938;SDS011;4504;48.810;9.172;2024-03-06T09:52:09;123.07;;;7.72;;
8938;SDS011;4504;48.810;9.172;2024-03-06T09:54:37;126.22;;;9.23;;
8938;SDS011;4504;48.810;9.172;2024-03-06T09:57:05;125.70;;;8.23;;
8938;SDS011;4504;48.810;9.172;2024-03-06T09:59:32;125.28;;;8.50;;
8938;SDS011;4504;48.810;9.172;2024-03-06T10:02:00;125.65;;;9.35;;
8938;SDS011;4504;48.810;9.172;2024-03-06T10:04:33;125.60;;;8.75;;
8938;SDS011;4504;48.810;9.172;2024-03-06T10:07:03;124.45;;;7.82;;
8938;SDS011;4504;48.810;9.172;2024-03-06T10:09:33;125.57;;;8.25;;
8938;SDS011;4504;48.810;9.172;2024-03-06T10:12:00;125.03;;;8.40;;
8938;SDS011;4504;48.810;9.172;2024-03-06T10:14:28;127.97;;;10.20;;
8938;SDS011;4504;48.810;9.172;2024-03-06T10:16:57;126.53;;;8.95;;
8938;SDS011;4504;48.810;9.172;2024-03-06T10:19:26;123.88;;;8.13;;
8938;SDS011;4504;48.810;9.172;2024-03-06T10:21:54;127.03;;;8.25;;
8938;SDS011;4504;48.810;9.172;2024-03-06T10:24:24;124.78;;;8.13;;
8938;SDS011;4504;48.810;9.172;2024-03-06T10:26:52;124.95;;;8.13;;
8938;SDS011;4504;48.810;9.172;2024-03-06T10:29:23;127.03;;;8.70;;
8938;SDS011;4504;48.810;9.172;2024-03-06T10:31:52;125.28;;;8.98;;
8938;SDS011;4504;48.810;9.172;2024-03-06T10:34:21;125.80;;;8.40;;
8938;SDS011;4504;48.810;9.172;2024-03-06T10:36:49;126.22;;;9.18;;
8938;SDS011;4504;48.810;9.172;2024-03-06T10:39:20;125.13;;;9.02;;
8938;SDS011;4504;48.810;9.172;2024-03-06T10:41:51;124.53;;;8.05;;
8938;SDS011;4504;48.810;9.172;2024-03-06T10:44:21;126.53;;;9.10;;
8938;SDS011;4504;48.810;9.172;2024-03-06T10:46:55;132.50;;;9.20;;
8938;SDS011;4504;48.810;9.172;2024-03-06T10:49:25;126.97;;;9.20;;
8938;SDS011;4504;48.810;9.172;2024-03-06T10:51:54;128.25;;;10.35;;
8938;SDS011;4504;48.810;9.172;2024-03-06T10:54:24;126.05;;;8.88;;
8938;SDS011;4504;48.810;9.172;2024-03-06T10:56:55;131.73;;;10.82;;
8938;SDS011;4504;48.810;9.172;2024-03-06T10:59:23;134.27;;;10.93;;
8938;SDS011;4504;48.810;9.172;2024-03-06T11:01:53;127.55;;;10.45;;
8938;SDS011;4504;48.810;9.172;2024-03-06T11:04:22;131.73;;;11.18;;
8938;SDS011;4504;48.810;9.172;2024-03-06T11:06:51;133.40;;;10.85;;
8938;SDS011;4504;48.810;9.172;2024-03-06T11:09:18;128.27;;;9.65;;
8938;SDS011;4504;48.810;9.172;2024-03-06T11:11:49;126.97;;;10.13;;
8938;SDS011;4504;48.810;9.172;2024-03-06T11:14:19;126.47;;;9.88;;
8938;SDS011;4504;48.810;9.172;2024-03-06T11:17:03;131.43;;;10.00;;
8938;SDS011;4504;48.810;9.172;2024-03-06T11:19:32;128.38;;;9.70;;
8938;SDS011;4504;48.810;9.172;2024-03-06T11:22:25;127.88;;;9.77;;
8938;SDS011;4504;48.810;9.172;2024-03-06T11:28:32;128.38;;;10.40;;
8938;SDS011;4504;48.810;9.172;2024-03-06T11:31:01;129.30;;;10.52;;
8938;SDS011;4504;48.810;9.172;2024-03-06T11:33:36;129.48;;;9.90;;
8938;SDS011;4504;48.810;9.172;2024-03-06T11:36:14;130.05;;;12.23;;
8938;SDS011;4504;48.810;9.172;2024-03-06T11:38:43;132.43;;;10.90;;
8938;SDS011;4504;48.810;9.172;2024-03-06T11:41:13;132.00;;;11.15;;
8938;SDS011;4504;48.810;9.172;2024-03-06T11:43:43;129.98;;;10.45;;
8938;SDS011;4504;48.810;9.172;2024-03-06T11:46:12;130.05;;;10.80;;
8938;SDS011;4504;48.810;9.172;2024-03-06T11:48:42;129.63;;;10.93;;
8938;SDS011;4504;48.810;9.172;2024-03-06T11:51:10;127.60;;;11.50;;
8938;SDS011;4504;48.810;9.172;2024-03-06T11:53:37;128.45;;;9.85;;
8938;SDS011;4504;48.810;9.172;2024-03-06T11:56:09;140.57;;;9.52;;
8938;SDS011;4504;48.810;9.172;2024-03-06T11:58:36;126.20;;;10.50;;
8938;SDS011;4504;48.810;9.172;2024-03-06T12:01:04;126.93;;;10.32;;
8938;SDS011;4504;48.810;9.172;2024-03-06T12:03:32;133.45;;;11.50;;
8938;SDS011;4504;48.810;9.172;2024-03-06T12:05:59;130.35;;;11.00;;
8938;SDS011;4504;48.810;9.172;2024-03-06T12:08:27;133.52;;;12.05;;
8938;SDS011;4504;48.810;9.172;2024-03-06T12:10:54;130.77;;;11.63;;
8938;SDS011;4504;48.810;9.172;2024-03-06T12:13:23;129.25;;;11.68;;
8938;SDS011;4504;48.810;9.172;2024-03-06T12:15:50;128.45;;;10.43;;
8938;SDS011;4504;48.810;9.172;2024-03-06T12:18:18;129.73;;;10.40;;
8938;SDS011;4504;48.810;9.172;2024-03-06T12:20:49;126.95;;;10.30;;
8938;SDS011;4504;48.810;9.172;2024-03-06T12:23:20;130.45;;;11.35;;
8938;SDS011;4504;48.810;9.172;2024-03-06T12:25:48;129.15;;;10.70;;
8938;SDS011;4504;48.810;9.172;2024-03-06T12:28:15;129.77;;;11.05;;
8938;SDS011;4504;48.810;9.172;2024-03-06T12:30:43;131.82;;;12.13;;
8938;SDS011;4504;48.810;9.172;2024-03-06T12:33:10;132.05;;;11.48;;
8938;SDS011;4504;48.810;9.172;2024-03-06T12:35:42;131.52;;;12.45;;
8938;SDS011;4504;48.810;9.172;2024-03-06T12:38:14;127.35;;;11.15;;
8938;SDS011;4504;48.810;9.172;2024-03-06T12:40:41;129.73;;;11.90;;
8938;SDS011;4504;48.810;9.172;2024-03-06T12:43:08;128.38;;;11.05;;
8938;SDS011;4504;48.810;9.172;2024-03-06T12:45:36;131.38;;;11.68;;
8938;SDS011;4504;48.810;9.172;2024-03-06T12:48:04;129.50;;;11.85;;
8938;SDS011;4504;48.810;9.172;2024-03-06T12:50:32;132.30;;;12.18;;
8938;SDS011;4504;48.810;9.172;2024-03-06T12:52:59;132.10;;;11.52;;
8938;SDS011;4504;48.810;9.172;2024-03-06T12:55:27;129.23;;;11.63;;
